Time;durP1;ratioP1;P1;durP2;ratioP2;P2;SDS_P1;SDS_P2;PMS_P1;PMS_P2;Temp;Humidity;BMP_temperature;BMP_pressure;BME280_temperature;BME280_humidity;BME280_pressure;Samples;Min_cycle;Max_cycle;Signal;HPM_P1;HPM_P2
2022/01/31 00:00:16;;;;;;;40.83;6.50;;;7.60;99.90;;;;;;4224222;28;20047;-79
2022/01/31 00:02:18;;;;;;;33.97;6.63;;;7.70;99.90;;;;;;4215069;28;20094;-79
2022/01/31 00:04:20;;;;;;;36.53;6.68;;;7.70;99.90;;;;;;4221609;28;20044;-80
2022/01/31 00:06:22;;;;;;;49.45;7.45;;;7.80;99.90;;;;;;4213210;28;20136;-80
2022/01/31 00:08:24;;;;;;;34.83;6.32;;;7.80;99.90;;;;;;4220875;28;20047;-83
2022/01/31 00:10:30;;;;;;;42.67;7.10;;;7.80;99.90;;;;;;4223017;28;20048;-80
2022/01/31 00:12:41;;;;;;;44.85;7.90;;;7.80;99.90;;;;;;4216196;28;20082;-80
2022/01/31 00:14:46;;;;;;;45.72;7.60;;;7.90;99.90;;;;;;4252836;27;20733;-81
2022/01/31 00:16:48;;;;;;;54.45;7.50;;;7.80;99.90;;;;;;4220316;28;20135;-80
2022/01/31 00:18:50;;;;;;;48.72;7.47;;;7.80;99.90;;;;;;4209022;28;20109;-78
2022/01/31 00:20:52;;;;;;;41.00;6.93;;;7.80;99.90;;;;;;4206444;28;20059;-81
2022/01/31 00:22:55;;;;;;;31.42;5.18;;;7.90;99.90;;;;;;4209818;28;20060;-79
2022/01/31 00:24:56;;;;;;;38.10;5.32;;;8.00;99.90;;;;;;4211774;28;20052;-80
2022/01/31 00:26:59;;;;;;;30.65;5.28;;;8.20;99.90;;;;;;4210620;28;20044;-79
2022/01/31 00:29:00;;;;;;;42.60;6.00;;;8.30;99.90;;;;;;4201506;28;20508;-79
2022/01/31 00:31:02;;;;;;;31.42;4.20;;;8.40;99.90;;;;;;4198182;28;20075;-80
2022/01/31 00:33:04;;;;;;;38.00;4.32;;;8.40;99.90;;;;;;4231321;27;20130;-81
2022/01/31 00:35:07;;;;;;;37.75;4.25;;;8.50;99.90;;;;;;4198159;28;20048;-80
2022/01/31 00:37:09;;;;;;;41.63;3.95;;;8.50;99.90;;;;;;4198279;28;20121;-79
2022/01/31 00:39:11;;;;;;;35.88;4.88;;;8.50;99.90;;;;;;4198120;28;20131;-78
2022/01/31 00:41:13;;;;;;;48.08;4.72;;;8.50;99.90;;;;;;4211481;28;20548;-79
2022/01/31 00:43:17;;;;;;;39.17;4.70;;;8.60;99.90;;;;;;4206841;28;20054;-80
2022/01/31 00:45:28;;;;;;;39.00;4.90;;;8.50;99.90;;;;;;4197875;28;20045;-80
2022/01/31 00:47:32;;;;;;;33.92;4.07;;;8.50;99.90;;;;;;4198101;28;20048;-80
2022/01/31 00:49:37;;;;;;;28.13;4.25;;;8.60;99.90;;;;;;4207829;28;20048;-78
2022/01/31 00:51:39;;;;;;;32.50;4.13;;;8.50;99.90;;;;;;4214416;28;20084;-80
2022/01/31 00:53:43;;;;;;;37.60;4.97;;;8.50;99.90;;;;;;4214545;28;20694;-79
2022/01/31 00:55:45;;;;;;;34.75;3.67;;;8.50;99.90;;;;;;4214340;28;20044;-79
2022/01/31 00:57:47;;;;;;;38.22;4.35;;;8.50;99.90;;;;;;4204720;28;20076;-81
2022/01/31 00:59:52;;;;;;;28.00;4.25;;;8.50;99.90;;;;;;4214277;28;20071;-79
2022/01/31 01:01:56;;;;;;;31.15;3.60;;;8.60;99.90;;;;;;4214927;28;20511;-80
2022/01/31 01:03:59;;;;;;;38.30;4.50;;;8.60;99.90;;;;;;4214791;28;20047;-79
2022/01/31 01:06:00;;;;;;;38.85;3.90;;;8.60;99.90;;;;;;4214231;28;20131;-80
2022/01/31 01:08:04;;;;;;;30.98;3.28;;;8.60;99.90;;;;;;4213319;28;20577;-81
2022/01/31 01:10:06;;;;;;;33.65;3.95;;;8.70;99.90;;;;;;4207587;28;20083;-80
2022/01/31 01:12:09;;;;;;;33.83;3.15;;;8.70;99.90;;;;;;4197447;28;20123;-79
2022/01/31 01:14:11;;;;;;;32.40;3.50;;;8.70;99.90;;;;;;4197684;28;20553;-80
2022/01/31 01:16:13;;;;;;;35.13;3.70;;;8.80;99.90;;;;;;4198913;28;20053;-79
2022/01/31 01:18:15;;;;;;;40.83;3.15;;;8.80;99.90;;;;;;4197645;28;20082;-80
2022/01/31 01:20:17;;;;;;;25.92;2.97;;;8.90;99.90;;;;;;4197163;28;20139;-77
2022/01/31 01:22:19;;;;;;;26.15;2.80;;;8.90;99.90;;;;;;4197596;28;20059;-80
2022/01/31 01:24:22;;;;;;;39.17;3.45;;;8.90;99.90;;;;;;4199907;28;20131;-80
2022/01/31 01:26:24;;;;;;;41.00;3.80;;;9.00;99.90;;;;;;4204617;28;20247;-80
2022/01/31 01:28:26;;;;;;;38.17;3.95;;;8.90;99.90;;;;;;4213555;28;20048;-80
2022/01/31 01:30:28;;;;;;;26.65;3.05;;;8.90;99.90;;;;;;4196661;28;20044;-81
2022/01/31 01:32:35;;;;;;;44.90;3.53;;;8.90;99.90;;;;;;4197570;28;20052;-79
2022/01/31 01:34:37;;;;;;;39.30;4.30;;;8.90;99.90;;;;;;4196936;28;20477;-80
2022/01/31 01:36:41;;;;;;;39.25;3.42;;;8.90;99.90;;;;;;4198223;28;20729;-79
2022/01/31 01:38:43;;;;;;;45.35;4.90;;;8.90;99.90;;;;;;4213877;28;20080;-79
2022/01/31 01:40:47;;;;;;;35.08;3.38;;;8.90;99.90;;;;;;4213825;28;20048;-80
2022/01/31 01:42:49;;;;;;;34.20;3.25;;;9.00;99.90;;;;;;4213477;28;20079;-81
2022/01/31 01:44:51;;;;;;;41.47;3.70;;;9.00;99.90;;;;;;4207421;28;20139;-80
2022/01/31 01:46:54;;;;;;;30.48;3.55;;;9.00;99.90;;;;;;4196584;28;20079;-80
2022/01/31 01:48:56;;;;;;;39.90;3.55;;;9.00;99.90;;;;;;4196838;28;20044;-83
2022/01/31 01:50:59;;;;;;;36.58;3.60;;;9.10;99.90;;;;;;4213568;28;20515;-80
2022/01/31 01:53:01;;;;;;;53.50;4.88;;;9.10;99.90;;;;;;4198648;28;20051;-80
2022/01/31 01:55:03;;;;;;;62.97;5.05;;;9.20;99.90;;;;;;4213636;28;20052;-80
2022/01/31 01:57:05;;;;;;;51.17;4.63;;;9.10;99.90;;;;;;4211973;28;20056;-81
2022/01/31 01:59:10;;;;;;;45.97;4.28;;;9.10;99.90;;;;;;4213533;28;20515;-80
2022/01/31 02:01:12;;;;;;;48.42;3.75;;;9.10;99.90;;;;;;4213501;28;20048;-79
2022/01/31 02:03:15;;;;;;;40.20;4.30;;;9.10;99.90;;;;;;4213645;28;20146;-79
2022/01/31 02:05:17;;;;;;;40.95;3.92;;;9.10;99.90;;;;;;4221729;28;20051;-81
2022/01/31 02:07:20;;;;;;;43.50;3.97;;;9.10;99.90;;;;;;4230247;28;20104;-81
2022/01/31 02:09:25;;;;;;;49.17;4.22;;;9.10;99.90;;;;;;4220000;28;20473;-79
2022/01/31 02:11:27;;;;;;;57.67;3.90;;;9.10;99.90;;;;;;4230096;28;20074;-78
2022/01/31 02:13:29;;;;;;;37.88;3.08;;;9.20;99.90;;;;;;4230089;28;20162;-79
2022/01/31 02:15:31;;;;;;;34.42;3.75;;;9.20;99.90;;;;;;4218313;28;20051;-81
2022/01/31 02:17:33;;;;;;;40.13;3.58;;;9.30;99.90;;;;;;4216360;28;20055;-80
2022/01/31 02:19:35;;;;;;;42.50;3.90;;;9.30;99.90;;;;;;4216661;28;20479;-82
2022/01/31 02:21:37;;;;;;;41.30;4.15;;;9.30;99.90;;;;;;4221585;28;20134;-80
2022/01/31 02:23:39;;;;;;;36.83;3.05;;;;;;;;;;4230539;28;20090;-81
2022/01/31 02:25:58;;;;;;;29.42;3.00;;;;;;;;;;4223712;28;20050;-79
2022/01/31 02:28:00;;;;;;;31.95;3.63;;;9.30;99.90;;;;;;4214559;28;20076;-78
2022/01/31 02:30:06;;;;;;;34.13;2.95;;;9.20;99.90;;;;;;4214901;28;20054;-79
2022/01/31 02:32:08;;;;;;;32.65;3.60;;;9.20;99.90;;;;;;4213546;28;20132;-80
2022/01/31 02:34:10;;;;;;;40.97;4.82;;;9.20;99.90;;;;;;4220693;28;20430;-80
2022/01/31 02:36:12;;;;;;;45.65;3.80;;;9.20;99.90;;;;;;4214987;28;20082;-79
2022/01/31 02:38:15;;;;;;;33.47;4.88;;;9.20;99.90;;;;;;4219042;28;20063;-80
2022/01/31 02:40:17;;;;;;;46.05;4.20;;;9.10;99.90;;;;;;4230094;28;20078;-79
2022/01/31 02:42:19;;;;;;;41.40;4.63;;;9.10;99.90;;;;;;4231010;28;20126;-79
2022/01/31 02:44:23;;;;;;;38.80;3.78;;;9.10;99.90;;;;;;4229744;28;20075;-79
2022/01/31 02:46:27;;;;;;;40.97;3.58;;;9.10;99.90;;;;;;4226170;28;20563;-80
2022/01/31 02:48:33;;;;;;;44.15;3.95;;;9.10;99.90;;;;;;4226796;28;20135;-79
2022/01/31 02:50:35;;;;;;;51.08;5.78;;;9.10;99.90;;;;;;4232500;27;20079;-81
2022/01/31 02:52:37;;;;;;;40.85;4.15;;;9.00;99.90;;;;;;4213340;28;20048;-79
2022/01/31 02:54:39;;;;;;;38.45;3.67;;;9.10;99.90;;;;;;4220550;28;20174;-78
2022/01/31 02:56:41;;;;;;;50.22;4.38;;;;;;;;;;4225592;28;20074;-79
2022/01/31 02:58:43;;;;;;;49.25;4.38;;;9.10;99.90;;;;;;4222187;28;20567;-80
2022/01/31 03:00:45;;;;;;;45.13;4.90;;;9.10;99.90;;;;;;4230169;28;20526;-79
2022/01/31 03:02:47;;;;;;;48.67;4.78;;;9.10;99.90;;;;;;4229536;28;20048;-78
2022/01/31 03:04:50;;;;;;;57.38;6.18;;;9.10;99.90;;;;;;4224419;28;20044;-79
2022/01/31 03:06:53;;;;;;;57.33;6.82;;;9.10;99.90;;;;;;4229133;28;20056;-80
2022/01/31 03:08:55;;;;;;;47.08;5.18;;;9.10;99.90;;;;;;4229432;28;20198;-81
2022/01/31 03:10:56;;;;;;;51.13;5.32;;;9.10;99.90;;;;;;4225882;28;20048;-79
2022/01/31 03:13:00;;;;;;;45.80;5.20;;;9.00;99.90;;;;;;4219878;28;20713;-80
2022/01/31 03:15:03;;;;;;;38.47;4.85;;;9.00;99.90;;;;;;4229301;28;20150;-80
2022/01/31 03:17:06;;;;;;;44.92;6.50;;;9.00;99.90;;;;;;4229095;28;20465;-79
2022/01/31 03:19:08;;;;;;;61.80;6.68;;;8.90;99.90;;;;;;4225408;28;20079;-80
2022/01/31 03:21:10;;;;;;;58.58;6.40;;;8.90;99.90;;;;;;4220313;28;20087;-79
2022/01/31 03:23:13;;;;;;;49.72;6.38;;;;;;;;;;4229550;28;20054;-79
2022/01/31 03:25:16;;;;;;;33.22;4.72;;;;;;;;;;4223292;28;20115;-79
2022/01/31 03:27:18;;;;;;;48.53;5.00;;;8.90;99.90;;;;;;4219409;28;20052;-79
2022/01/31 03:29:20;;;;;;;39.58;5.63;;;9.00;99.90;;;;;;4212045;28;20052;-79
2022/01/31 03:31:22;;;;;;;37.28;5.10;;;8.90;99.90;;;;;;4214687;28;20139;-78
2022/01/31 03:33:24;;;;;;;50.30;5.50;;;9.70;99.90;;;;;;4219974;28;20051;-79
2022/01/31 03:35:27;;;;;;;42.75;5.63;;;8.90;99.90;;;;;;4212711;28;20051;-80
2022/01/31 03:37:29;;;;;;;41.42;4.68;;;8.90;99.90;;;;;;4224865;28;20550;-80
2022/01/31 03:39:31;;;;;;;51.88;6.35;;;;;;;;;;4229625;28;20043;-81
2022/01/31 03:41:33;;;;;;;42.63;5.00;;;8.80;99.90;;;;;;4226255;28;20572;-79
2022/01/31 03:43:35;;;;;;;46.25;5.15;;;8.80;99.90;;;;;;4215497;28;20075;-80
2022/01/31 03:45:37;;;;;;;43.22;5.07;;;8.80;99.90;;;;;;4229073;28;20585;-78
2022/01/31 03:47:44;;;;;;;42.95;5.20;;;8.90;99.90;;;;;;4229678;28;20055;-79
2022/01/31 03:49:46;;;;;;;44.28;4.97;;;9.00;99.90;;;;;;4229646;28;20484;-79
2022/01/31 03:51:51;;;;;;;44.83;5.32;;;9.00;99.90;;;;;;4223547;28;20123;-81
2022/01/31 03:53:53;;;;;;;46.50;4.82;;;9.00;99.90;;;;;;4215530;28;20079;-81
2022/01/31 03:55:55;;;;;;;35.85;4.78;;;;;;;;;;4215557;28;20044;-79
2022/01/31 03:57:57;;;;;;;39.78;5.38;;;9.20;99.90;;;;;;4215895;28;20138;-80
2022/01/31 04:00:00;;;;;;;43.85;5.22;;;9.10;99.90;;;;;;4216863;28;20179;-78
2022/01/31 04:02:06;;;;;;;34.25;4.95;;;9.20;99.90;;;;;;4216132;28;20164;-81
2022/01/31 04:04:10;;;;;;;24.30;4.13;;;9.20;99.90;;;;;;4217275;28;20119;-79
2022/01/31 04:06:12;;;;;;;32.33;4.50;;;9.00;99.90;;;;;;4218189;28;20466;-76
2022/01/31 04:08:14;;;;;;;32.28;4.70;;;9.20;99.90;;;;;;4216128;28;20075;-80
2022/01/31 04:10:16;;;;;;;33.83;4.80;;;9.20;99.90;;;;;;4216305;28;20047;-79
2022/01/31 04:12:18;;;;;;;32.22;4.28;;;9.10;99.90;;;;;;4215860;28;20044;-77
2022/01/31 04:14:25;;;;;;;34.58;4.13;;;9.00;99.90;;;;;;4218896;28;20040;-78
2022/01/31 04:16:27;;;;;;;26.10;3.72;;;8.80;99.90;;;;;;4225661;28;20059;-78
2022/01/31 04:18:29;;;;;;;39.63;5.85;;;8.90;99.90;;;;;;4232214;28;20515;-80
2022/01/31 04:20:31;;;;;;;47.42;6.25;;;8.90;99.90;;;;;;4232026;28;20554;-80
2022/01/31 04:22:36;;;;;;;41.00;4.78;;;8.90;99.90;;;;;;4227836;28;20044;-80
2022/01/31 04:24:41;;;;;;;36.83;4.50;;;;;;;;;;4216668;28;20056;-79
2022/01/31 04:26:45;;;;;;;28.63;4.53;;;8.80;99.90;;;;;;4231690;28;20194;-79
2022/01/31 04:28:51;;;;;;;31.30;4.95;;;9.10;99.90;;;;;;4229562;28;20088;-78
2022/01/31 04:31:12;;;;;;;36.17;4.22;;;;;;;;;;4231702;28;20180;-80
2022/01/31 04:33:14;;;;;;;33.95;4.25;;;9.00;99.90;;;;;;4232084;28;20056;-78
2022/01/31 04:35:16;;;;;;;28.38;4.72;;;9.00;99.90;;;;;;4231331;28;20047;-78
2022/01/31 04:37:18;;;;;;;37.08;5.30;;;8.90;99.90;;;;;;4217436;28;20085;-79
2022/01/31 04:39:20;;;;;;;36.80;4.75;;;9.00;99.90;;;;;;4231321;28;20063;-79
2022/01/31 04:41:22;;;;;;;35.92;4.55;;;9.00;99.90;;;;;;4230983;28;20130;-79
2022/01/31 04:43:24;;;;;;;40.50;4.97;;;8.80;99.90;;;;;;4231327;28;20079;-80
2022/01/31 04:45:26;;;;;;;30.20;4.75;;;8.80;99.90;;;;;;4229942;28;20048;-81
2022/01/31 04:47:28;;;;;;;31.27;3.67;;;8.70;99.90;;;;;;4231034;28;20126;-78
2022/01/31 04:49:29;;;;;;;38.28;5.50;;;8.70;99.90;;;;;;4227911;28;20044;-80
2022/01/31 04:51:31;;;;;;;36.47;5.25;;;8.70;99.90;;;;;;4214698;28;20052;-80
2022/01/31 04:53:33;;;;;;;31.70;4.05;;;8.80;99.90;;;;;;4214404;28;20504;-80
2022/01/31 04:55:36;;;;;;;37.88;4.47;;;8.70;99.90;;;;;;4215868;28;20059;-80
2022/01/31 04:57:39;;;;;;;30.52;4.35;;;8.60;99.90;;;;;;4214259;28;20059;-79
2022/01/31 04:59:43;;;;;;;35.50;5.32;;;8.50;99.90;;;;;;4219748;28;20144;-80
2022/01/31 05:01:47;;;;;;;42.50;4.97;;;8.50;99.90;;;;;;4231486;28;20422;-80
2022/01/31 05:03:50;;;;;;;36.85;4.60;;;8.40;99.90;;;;;;4230309;28;20542;-77
2022/01/31 05:05:52;;;;;;;38.63;4.53;;;8.40;99.90;;;;;;4214886;28;20135;-79
2022/01/31 05:07:56;;;;;;;39.30;4.47;;;8.50;99.90;;;;;;4214711;28;20051;-79
2022/01/31 05:09:58;;;;;;;33.50;3.70;;;;;;;;;;4220711;28;20046;-80
2022/01/31 05:12:01;;;;;;;26.27;4.00;;;;;;;;;;4214335;28;20082;-80
2022/01/31 05:14:03;;;;;;;46.58;6.07;;;8.60;99.90;;;;;;4214427;28;20470;-79
2022/01/31 05:16:05;;;;;;;32.25;4.85;;;8.60;99.90;;;;;;4214241;28;20486;-80
2022/01/31 05:18:07;;;;;;;41.00;4.90;;;8.50;99.90;;;;;;4219322;28;20075;-80
2022/01/31 05:20:09;;;;;;;31.00;4.82;;;8.50;99.90;;;;;;4215219;28;20074;-78
2022/01/31 05:22:11;;;;;;;37.97;4.28;;;8.40;99.90;;;;;;4217629;28;20102;-79
2022/01/31 05:24:13;;;;;;;28.95;4.18;;;;;;;;;;4229227;28;20086;-81
2022/01/31 05:26:16;;;;;;;27.17;3.90;;;8.40;99.90;;;;;;4222064;28;20541;-82
2022/01/31 05:28:18;;;;;;;41.08;5.22;;;8.30;99.90;;;;;;4231014;28;20043;-79
2022/01/31 05:30:22;;;;;;;35.17;3.95;;;8.40;99.90;;;;;;4230934;28;20047;-80
2022/01/31 05:32:24;;;;;;;32.80;3.95;;;8.40;99.90;;;;;;4224468;28;20097;-78
2022/01/31 05:34:26;;;;;;;38.05;5.05;;;8.30;99.90;;;;;;4232378;28;20043;-76
2022/01/31 05:36:27;;;;;;;32.10;4.43;;;8.20;99.90;;;;;;4228997;28;20083;-79
2022/01/31 05:38:34;;;;;;;32.88;4.72;;;;;;;;;;4223867;28;20083;-81
2022/01/31 05:40:36;;;;;;;38.35;3.65;;;8.20;99.90;;;;;;4212462;28;20539;-80
2022/01/31 05:42:38;;;;;;;35.03;4.97;;;8.10;99.90;;;;;;4228504;28;20617;-80
2022/01/31 05:44:42;;;;;;;41.42;3.95;;;8.20;99.90;;;;;;4213889;28;20129;-80
2022/01/31 05:46:44;;;;;;;45.40;6.22;;;8.20;99.90;;;;;;4213960;28;20111;-79
2022/01/31 05:48:46;;;;;;;40.63;6.97;;;8.20;99.90;;;;;;4213984;28;20419;-78
2022/01/31 05:50:48;;;;;;;41.17;4.30;;;8.20;99.90;;;;;;4229959;28;20048;-79
2022/01/31 05:52:51;;;;;;;36.00;4.43;;;8.20;99.90;;;;;;4213661;28;20048;-78
2022/01/31 05:54:53;;;;;;;34.88;4.72;;;8.20;99.90;;;;;;4213813;28;20059;-78
2022/01/31 05:56:56;;;;;;;51.17;6.03;;;8.20;99.90;;;;;;4213736;28;20496;-80
2022/01/31 05:58:58;;;;;;;39.40;5.13;;;8.20;99.90;;;;;;4225199;28;20048;-78
2022/01/31 06:00:59;;;;;;;36.53;4.10;;;8.20;99.90;;;;;;4229992;28;20442;-79
2022/01/31 06:03:02;;;;;;;31.73;4.75;;;8.10;99.90;;;;;;4228298;28;20070;-79
2022/01/31 06:05:04;;;;;;;32.30;5.18;;;8.00;99.90;;;;;;4229272;28;20067;-83
2022/01/31 06:07:06;;;;;;;31.98;4.57;;;8.10;99.90;;;;;;4229776;28;20699;-78
2022/01/31 06:09:08;;;;;;;33.63;5.45;;;8.00;99.90;;;;;;4225227;28;20101;-79
2022/01/31 06:11:10;;;;;;;34.60;4.10;;;8.10;99.90;;;;;;4214606;28;20059;-81
2022/01/31 06:13:12;;;;;;;34.20;5.22;;;8.10;99.90;;;;;;4213543;28;20047;-79
2022/01/31 06:15:15;;;;;;;32.20;4.22;;;8.10;99.90;;;;;;4212509;28;20789;-79
2022/01/31 06:17:17;;;;;;;32.60;4.15;;;8.20;99.90;;;;;;4218581;28;20075;-78
2022/01/31 06:19:19;;;;;;;31.40;4.78;;;8.10;99.90;;;;;;4229850;28;20044;-79
2022/01/31 06:21:21;;;;;;;32.42;4.13;;;8.10;99.90;;;;;;4229981;28;20055;-79
2022/01/31 06:23:24;;;;;;;35.38;5.57;;;8.10;99.90;;;;;;4228135;28;20080;-80
2022/01/31 06:25:26;;;;;;;41.80;5.45;;;8.20;99.90;;;;;;4215987;28;20089;-79
2022/01/31 06:27:28;;;;;;;38.22;5.38;;;8.10;99.90;;;;;;4212548;28;20048;-79
2022/01/31 06:29:30;;;;;;;40.85;6.35;;;8.10;99.90;;;;;;4227243;28;20131;-79
2022/01/31 06:31:32;;;;;;;41.40;4.57;;;8.20;99.90;;;;;;4213197;28;20502;-79
2022/01/31 06:33:34;;;;;;;31.83;4.43;;;8.20;99.90;;;;;;4212430;28;20051;-79
2022/01/31 06:35:36;;;;;;;35.75;4.65;;;8.20;99.90;;;;;;4215864;28;20790;-81
2022/01/31 06:37:38;;;;;;;42.38;4.63;;;8.20;99.90;;;;;;4229977;28;20055;-80
2022/01/31 06:39:40;;;;;;;32.15;3.97;;;8.20;99.90;;;;;;4229735;28;20043;-79
2022/01/31 06:41:42;;;;;;;40.88;5.43;;;8.30;99.90;;;;;;4218372;28;20051;-79
2022/01/31 06:43:45;;;;;;;49.95;5.40;;;8.40;99.90;;;;;;4226151;28;20652;-78
2022/01/31 06:45:49;;;;;;;42.80;5.80;;;8.40;99.90;;;;;;4229808;28;20523;-79
2022/01/31 06:47:51;;;;;;;29.70;4.55;;;8.50;99.90;;;;;;4229866;28;20059;-80
2022/01/31 06:49:53;;;;;;;29.92;4.82;;;8.50;99.90;;;;;;4228599;28;20424;-78
2022/01/31 06:51:55;;;;;;;42.80;4.30;;;8.60;99.90;;;;;;4216210;28;20428;-79
2022/01/31 06:53:59;;;;;;;32.90;3.75;;;8.60;99.90;;;;;;4226517;28;20510;-79
2022/01/31 06:56:01;;;;;;;27.05;4.13;;;8.70;99.90;;;;;;4222709;28;20127;-79
2022/01/31 06:58:03;;;;;;;33.33;5.38;;;8.70;99.90;;;;;;4212831;28;20087;-79
2022/01/31 07:00:07;;;;;;;35.00;5.80;;;8.80;99.90;;;;;;4213066;28;20076;-79
2022/01/31 07:02:09;;;;;;;33.17;4.88;;;8.80;99.90;;;;;;4213291;28;20048;-79
2022/01/31 07:04:11;;;;;;;37.55;4.70;;;8.70;99.90;;;;;;4211831;28;20043;-78
2022/01/31 07:06:13;;;;;;;39.35;5.22;;;8.70;99.90;;;;;;4225152;28;20055;-79
2022/01/31 07:08:22;;;;;;;35.53;4.93;;;8.70;99.90;;;;;;4229492;28;20131;-80
2022/01/31 07:10:24;;;;;;;31.40;4.50;;;8.60;99.90;;;;;;4222689;28;20051;-78
2022/01/31 07:12:32;;;;;;;38.08;4.88;;;8.60;99.90;;;;;;4218890;28;20097;-83
2022/01/31 07:14:34;;;;;;;33.83;4.43;;;8.60;99.90;;;;;;4223476;28;20097;-80
2022/01/31 07:16:36;;;;;;;26.13;4.22;;;8.60;99.90;;;;;;4225568;28;20427;-77
2022/01/31 07:18:39;;;;;;;30.48;4.30;;;8.60;99.90;;;;;;4217505;28;20044;-78
2022/01/31 07:20:43;;;;;;;37.22;4.75;;;8.60;99.90;;;;;;4224054;28;20043;-78
2022/01/31 07:22:51;;;;;;;39.30;4.63;;;8.60;99.90;;;;;;4224830;28;20044;-77
2022/01/31 07:25:02;;;;;;;36.97;4.18;;;8.60;99.90;;;;;;4221029;28;20079;-80
2022/01/31 07:27:06;;;;;;;25.73;3.97;;;8.60;99.90;;;;;;4222225;28;20574;-82
2022/01/31 07:29:07;;;;;;;40.90;4.70;;;8.60;99.90;;;;;;4218584;28;20075;-79
2022/01/31 07:31:11;;;;;;;37.13;4.88;;;8.60;99.90;;;;;;4226099;28;20111;-79
2022/01/31 07:33:13;;;;;;;28.63;4.43;;;8.60;99.90;;;;;;4223883;28;20040;-82
2022/01/31 07:35:16;;;;;;;32.03;4.70;;;8.60;99.90;;;;;;4221575;28;20040;-80
2022/01/31 07:37:18;;;;;;;32.75;4.88;;;8.60;99.90;;;;;;4226234;28;20075;-80
2022/01/31 07:39:20;;;;;;;30.23;3.85;;;8.60;99.90;;;;;;4221396;28;20472;-78
2022/01/31 07:41:23;;;;;;;31.85;3.97;;;8.60;99.90;;;;;;4221390;28;20047;-80
2022/01/31 07:43:26;;;;;;;33.80;4.20;;;8.60;99.90;;;;;;4224587;28;20070;-79
2022/01/31 07:45:28;;;;;;;28.05;4.53;;;8.60;99.90;;;;;;4225417;28;20047;-79
2022/01/31 07:47:30;;;;;;;33.80;6.03;;;8.50;99.90;;;;;;4224941;27;20076;-79
2022/01/31 07:49:32;;;;;;;29.35;4.32;;;8.50;99.90;;;;;;4228169;28;20076;-81
2022/01/31 07:51:38;;;;;;;28.63;3.97;;;8.60;99.90;;;;;;4219333;28;20121;-77
2022/01/31 07:53:40;;;;;;;35.20;4.30;;;8.60;99.90;;;;;;4222866;28;20051;-81
2022/01/31 07:55:42;;;;;;;34.05;4.85;;;8.60;99.90;;;;;;4216300;28;20048;-80
2022/01/31 07:57:47;;;;;;;39.30;4.43;;;8.50;99.90;;;;;;4216150;28;20396;-80
2022/01/31 07:59:49;;;;;;;35.78;4.60;;;8.50;99.90;;;;;;4224758;28;20046;-80
2022/01/31 08:01:51;;;;;;;31.83;5.13;;;8.50;99.90;;;;;;4218923;28;20039;-79
2022/01/31 08:03:57;;;;;;;33.70;6.07;;;8.40;99.90;;;;;;4221772;28;20043;-80
2022/01/31 08:06:00;;;;;;;42.15;8.45;;;8.50;99.90;;;;;;4220982;28;20059;-79
2022/01/31 08:08:02;;;;;;;33.50;5.90;;;8.40;99.90;;;;;;4223423;28;20040;-79
2022/01/31 08:10:05;;;;;;;35.65;5.00;;;8.40;99.90;;;;;;4223508;28;20454;-82
2022/01/31 08:12:07;;;;;;;44.78;5.43;;;8.50;99.90;;;;;;4221550;28;20048;-81
2022/01/31 08:14:10;;;;;;;41.17;5.95;;;8.50;99.90;;;;;;4223481;28;20047;-79
2022/01/31 08:16:14;;;;;;;38.05;4.80;;;8.50;99.90;;;;;;4223823;28;20078;-80
2022/01/31 08:18:16;;;;;;;37.50;6.40;;;8.50;99.90;;;;;;4237568;27;20047;-80
2022/01/31 08:20:19;;;;;;;39.88;6.45;;;8.60;99.90;;;;;;4221421;28;20044;-81
2022/01/31 08:22:21;;;;;;;55.80;6.70;;;8.50;99.90;;;;;;4223213;28;20118;-80
2022/01/31 08:24:23;;;;;;;32.40;5.72;;;8.60;99.90;;;;;;4222176;28;20044;-81
2022/01/31 08:26:30;;;;;;;26.10;5.05;;;8.60;99.90;;;;;;4217562;28;20074;-80
2022/01/31 08:28:39;;;;;;;38.67;5.03;;;8.70;99.90;;;;;;4222708;28;20052;-80
2022/01/31 08:31:02;;;;;;;35.65;4.15;;;8.60;99.90;;;;;;4221362;28;20071;-80
2022/01/31 08:33:13;;;;;;;30.83;3.70;;;8.60;99.90;;;;;;4226112;28;20051;-80
2022/01/31 08:37:35;;;;;;;37.10;5.55;;;8.70;99.90;;;;;;4220238;27;20056;-78
2022/01/31 08:39:37;;;;;;;36.45;4.88;;;8.70;99.90;;;;;;4222893;28;20063;-80
2022/01/31 08:41:42;;;;;;;39.30;4.45;;;8.80;99.90;;;;;;4223815;28;20055;-79
2022/01/31 08:43:44;;;;;;;30.83;5.28;;;8.70;99.90;;;;;;4226150;28;20048;-81
2022/01/31 08:45:48;;;;;;;31.85;4.32;;;8.80;99.90;;;;;;4223461;28;20048;-79
2022/01/31 08:47:50;;;;;;;41.27;4.73;;;8.80;99.90;;;;;;4222693;28;20048;-79
2022/01/31 08:49:52;;;;;;;29.65;4.57;;;8.80;99.90;;;;;;4220692;28;20885;-80
2022/01/31 08:51:54;;;;;;;23.92;4.95;;;8.80;99.90;;;;;;4227269;27;20485;-79
2022/01/31 08:53:56;;;;;;;30.45;3.97;;;8.80;99.90;;;;;;4226796;28;20047;-80
2022/01/31 08:56:01;;;;;;;33.22;4.25;;;8.90;99.90;;;;;;4220976;28;20569;-79
2022/01/31 08:58:06;;;;;;;33.35;4.68;;;8.90;99.90;;;;;;4220674;28;20139;-78
2022/01/31 09:00:08;;;;;;;29.67;4.60;;;8.90;99.90;;;;;;4221399;28;20067;-79
2022/01/31 09:02:16;;;;;;;28.35;4.85;;;8.90;99.90;;;;;;4223368;28;20611;-80
2022/01/31 09:04:47;;;;;;;28.40;4.63;;;8.90;99.90;;;;;;4220568;28;20468;-80
2022/01/31 09:06:43;;;;;;;27.77;5.43;;;8.90;99.90;;;;;;4215392;28;20503;-81
2022/01/31 09:08:45;;;;;;;28.73;4.13;;;8.90;99.90;;;;;;4226720;28;20119;-81
2022/01/31 09:10:47;;;;;;;28.23;4.20;;;8.90;99.90;;;;;;4214706;28;20074;-81
2022/01/31 09:12:49;;;;;;;29.70;4.55;;;8.90;99.90;;;;;;4214341;28;20139;-81
2022/01/31 09:14:51;;;;;;;39.58;4.80;;;9.00;99.90;;;;;;4215516;28;20561;-83
2022/01/31 09:16:53;;;;;;;36.17;7.53;;;9.00;99.90;;;;;;4228902;28;20048;-79
2022/01/31 09:18:55;;;;;;;36.03;5.07;;;9.00;99.90;;;;;;4230732;28;20079;-80
2022/01/31 09:20:58;;;;;;;26.45;4.05;;;9.00;99.90;;;;;;4231531;28;20078;-79
2022/01/31 09:23:02;;;;;;;27.48;5.63;;;9.00;99.90;;;;;;4228242;28;20537;-81
2022/01/31 09:25:04;;;;;;;36.20;4.97;;;9.00;99.90;;;;;;4215925;28;20086;-79
2022/01/31 09:27:07;;;;;;;29.58;4.30;;;9.00;99.90;;;;;;4214500;28;20067;-80
2022/01/31 09:29:10;;;;;;;42.78;4.93;;;9.00;99.90;;;;;;4214189;28;20654;-82
2022/01/31 09:31:13;;;;;;;29.65;4.53;;;9.00;99.90;;;;;;4214204;28;20115;-80
2022/01/31 09:33:16;;;;;;;36.40;4.55;;;9.00;99.90;;;;;;4215850;28;20052;-79
2022/01/31 09:35:18;;;;;;;37.60;5.25;;;9.00;99.90;;;;;;4224696;28;20130;-79
2022/01/31 09:37:21;;;;;;;32.10;4.78;;;9.00;99.90;;;;;;4230980;28;20160;-79
2022/01/31 09:39:23;;;;;;;34.72;5.13;;;9.10;99.90;;;;;;4226733;28;20083;-79
2022/01/31 09:41:27;;;;;;;34.35;5.55;;;9.00;99.90;;;;;;4228463;28;20074;-81
2022/01/31 09:44:21;;;;;;;35.60;4.77;;;9.10;99.90;;;;;;4230771;28;20590;-79
2022/01/31 09:50:05;;;;;;;35.45;4.78;;;9.10;99.90;;;;;;4223303;27;20067;-80
2022/01/31 09:52:07;;;;;;;32.78;4.00;;;9.10;99.90;;;;;;4229349;28;20053;-79
2022/01/31 09:54:09;;;;;;;35.20;5.28;;;9.10;99.90;;;;;;4213379;28;20075;-79
2022/01/31 09:56:21;;;;;;;37.85;5.03;;;9.20;99.90;;;;;;4215944;28;20422;-80
2022/01/31 09:58:29;;;;;;;31.30;4.25;;;9.20;99.90;;;;;;4214120;28;20044;-79
2022/01/31 10:00:33;;;;;;;41.05;5.95;;;9.20;99.90;;;;;;4215066;28;20095;-77
2022/01/31 10:02:35;;;;;;;50.80;5.28;;;9.20;99.90;;;;;;4215024;28;20059;-79
2022/01/31 10:04:43;;;;;;;30.70;3.85;;;9.30;99.90;;;;;;4214968;28;20097;-82
2022/01/31 10:06:51;;;;;;;35.97;4.10;;;9.30;99.90;;;;;;4221723;28;20446;-80
2022/01/31 10:09:13;;;;;;;28.02;4.43;;;9.30;99.90;;;;;;4228547;28;20126;-80
2022/01/31 10:11:29;;;;;;;45.72;5.35;;;9.30;99.90;;;;;;4224301;28;20556;-80
2022/01/31 10:18:24;;;;;;;29.33;4.38;;;9.20;99.90;;;;;;4212684;28;20050;-79
2022/01/31 10:20:45;;;;;;;47.17;5.80;;;9.20;99.90;;;;;;4212995;28;20047;-83
2022/01/31 10:22:47;;;;;;;39.27;3.70;;;9.20;99.90;;;;;;4214590;28;20083;-79
2022/01/31 10:24:52;;;;;;;31.23;3.95;;;9.20;99.90;;;;;;4213333;28;20539;-79
2022/01/31 10:26:55;;;;;;;39.40;3.35;;;9.20;99.90;;;;;;4212979;28;20106;-78
2022/01/31 10:29:14;;;;;;;24.08;3.95;;;9.20;99.90;;;;;;4229615;28;20047;-80
2022/01/31 10:31:17;;;;;;;35.30;4.28;;;9.30;99.90;;;;;;4225340;28;20068;-80
2022/01/31 10:33:21;;;;;;;28.77;3.97;;;9.30;99.90;;;;;;4229836;28;20426;-80
2022/01/31 10:35:31;;;;;;;31.58;4.38;;;9.30;99.90;;;;;;4230379;28;20100;-80
2022/01/31 10:37:35;;;;;;;29.65;4.80;;;9.30;99.90;;;;;;4230250;28;20079;-81
2022/01/31 10:45:09;;;;;;;24.38;4.40;;;9.40;99.90;;;;;;4217201;28;20055;-79
2022/01/31 10:52:10;;;;;;;37.85;4.40;;;9.40;99.90;;;;;;4225959;28;20096;-79
2022/01/31 10:56:45;;;;;;;28.73;3.78;;;9.40;99.90;;;;;;4231056;27;20058;-78
2022/01/31 10:59:01;;;;;;;27.05;4.50;;;9.30;99.90;;;;;;4229605;28;21001;-81
2022/01/31 11:01:14;;;;;;;27.80;4.13;;;9.40;99.90;;;;;;4227453;28;20063;-80
2022/01/31 11:03:32;;;;;;;29.40;4.45;;;9.40;99.90;;;;;;4223277;28;20105;-81
2022/01/31 11:05:35;;;;;;;38.25;4.60;;;9.40;99.90;;;;;;4212750;28;20427;-80
2022/01/31 11:07:37;;;;;;;29.85;4.65;;;9.40;99.90;;;;;;4215607;28;20072;-78
2022/01/31 11:09:40;;;;;;;29.25;4.35;;;9.30;99.90;;;;;;4224265;28;20056;-81